sensor_id;sensor_type;location;lat;lon;timestamp;pressure;altitude;pressure_sealevel;temperature;humidity
9261;BME280;4667;42.726;23.252;2023-02-23T00:00:25;95071.06;;;6.83;nan
9261;BME280;4667;42.726;23.252;2023-02-23T00:02:54;95069.50;;;6.78;nan
9261;BME280;4667;42.726;23.252;2023-02-23T00:05:26;95074.09;;;6.78;nan
9261;BME280;4667;42.726;23.252;2023-02-23T00:07:55;95078.56;;;6.67;nan
9261;BME280;4667;42.726;23.252;2023-02-23T00:10:22;95074.25;;;6.62;nan
9261;BME280;4667;42.726;23.252;2023-02-23T00:12:54;95073.91;;;6.64;nan
9261;BME280;4667;42.726;23.252;2023-02-23T00:15:21;95085.91;;;6.70;nan
9261;BME280;4667;42.726;23.252;2023-02-23T00:17:52;95081.84;;;6.53;nan
9261;BME280;4667;42.726;23.252;2023-02-23T00:20:22;95078.41;;;6.56;nan
9261;BME280;4667;42.726;23.252;2023-02-23T00:22:52;95082.97;;;6.52;nan
9261;BME280;4667;42.726;23.252;2023-02-23T00:25:24;95081.84;;;6.53;nan
9261;BME280;4667;42.726;23.252;2023-02-23T00:27:52;95080.31;;;6.55;nan
9261;BME280;4667;42.726;23.252;2023-02-23T00:30:19;95085.56;;;6.45;nan
9261;BME280;4667;42.726;23.252;2023-02-23T00:32:46;95084.06;;;6.47;nan
9261;BME280;4667;42.726;23.252;2023-02-23T00:35:13;95085.25;;;6.50;nan
9261;BME280;4667;42.726;23.252;2023-02-23T00:37:44;95073.97;;;6.41;nan
9261;BME280;4667;42.726;23.252;2023-02-23T00:40:12;95082.00;;;6.37;nan
9261;BME280;4667;42.726;23.252;2023-02-23T00:42:57;95081.63;;;6.39;nan
9261;BME280;4667;42.726;23.252;2023-02-23T00:45:35;95074.66;;;6.34;nan
9261;BME280;4667;42.726;23.252;2023-02-23T00:48:06;95085.88;;;6.40;nan
9261;BME280;4667;42.726;23.252;2023-02-23T00:50:35;95078.59;;;6.40;nan
9261;BME280;4667;42.726;23.252;2023-02-23T00:53:03;95077.88;;;6.43;nan
9261;BME280;4667;42.726;23.252;2023-02-23T00:55:30;95075.56;;;6.45;nan
9261;BME280;4667;42.726;23.252;2023-02-23T00:57:58;95079.06;;;6.49;nan
9261;BME280;4667;42.726;23.252;2023-02-23T01:00:25;95089.00;;;6.42;nan
9261;BME280;4667;42.726;23.252;2023-02-23T01:02:51;95083.97;;;6.40;nan
9261;BME280;4667;42.726;23.252;2023-02-23T01:05:18;95087.00;;;6.39;nan
9261;BME280;4667;42.726;23.252;2023-02-23T01:07:46;95091.69;;;6.42;nan
9261;BME280;4667;42.726;23.252;2023-02-23T01:10:13;95084.75;;;6.41;nan
9261;BME280;4667;42.726;23.252;2023-02-23T01:12:48;95085.94;;;6.43;nan
9261;BME280;4667;42.726;23.252;2023-02-23T01:15:18;95086.31;;;6.42;nan
9261;BME280;4667;42.726;23.252;2023-02-23T01:17:47;95091.69;;;6.42;nan
9261;BME280;4667;42.726;23.252;2023-02-23T01:20:15;95089.75;;;6.42;nan
9261;BME280;4667;42.726;23.252;2023-02-23T01:22:44;95085.94;;;6.43;nan
9261;BME280;4667;42.726;23.252;2023-02-23T01:25:11;95084.69;;;6.37;nan
9261;BME280;4667;42.726;23.252;2023-02-23T01:27:38;95085.06;;;6.36;nan
9261;BME280;4667;42.726;23.252;2023-02-23T01:30:07;95083.16;;;6.36;nan
9261;BME280;4667;42.726;23.252;2023-02-23T01:32:36;95080.34;;;6.29;nan
9261;BME280;4667;42.726;23.252;2023-02-23T01:35:04;95083.59;;;6.15;nan
9261;BME280;4667;42.726;23.252;2023-02-23T01:37:33;95079.81;;;6.20;nan
9261;BME280;4667;42.726;23.252;2023-02-23T01:40:01;95082.22;;;6.25;nan
9261;BME280;4667;42.726;23.252;2023-02-23T01:42:36;95081.84;;;6.27;nan
9261;BME280;4667;42.726;23.252;2023-02-23T01:45:25;95088.41;;;6.29;nan
9261;BME280;4667;42.726;23.252;2023-02-23T01:47:56;95080.78;;;6.31;nan
9261;BME280;4667;42.726;23.252;2023-02-23T01:50:27;95085.00;;;6.32;nan
9261;BME280;4667;42.726;23.252;2023-02-23T01:52:56;95088.84;;;6.31;nan
9261;BME280;4667;42.726;23.252;2023-02-23T01:55:25;95088.06;;;6.31;nan
9261;BME280;4667;42.726;23.252;2023-02-23T01:57:58;95094.22;;;6.31;nan
9261;BME280;4667;42.726;23.252;2023-02-23T02:00:27;95076.84;;;6.25;nan
9261;BME280;4667;42.726;23.252;2023-02-23T02:02:58;95072.50;;;6.17;nan
9261;BME280;4667;42.726;23.252;2023-02-23T02:05:26;95079.56;;;6.02;nan
9261;BME280;4667;42.726;23.252;2023-02-23T02:07:54;95081.19;;;6.07;nan
9261;BME280;4667;42.726;23.252;2023-02-23T02:10:26;95078.78;;;6.02;nan
9261;BME280;4667;42.726;23.252;2023-02-23T02:13:06;95079.94;;;6.01;nan
9261;BME280;4667;42.726;23.252;2023-02-23T02:15:37;95078.25;;;5.93;nan
9261;BME280;4667;42.726;23.252;2023-02-23T02:18:16;95076.88;;;5.80;nan
9261;BME280;4667;42.726;23.252;2023-02-23T02:27:17;95082.72;;;5.62;nan
9261;BME280;4667;42.726;23.252;2023-02-23T02:33:16;95082.66;;;5.59;nan
9261;BME280;4667;42.726;23.252;2023-02-23T02:39:10;95083.44;;;5.59;nan
9261;BME280;4667;42.726;23.252;2023-02-23T02:41:51;95079.50;;;5.53;nan
9261;BME280;4667;42.726;23.252;2023-02-23T02:44:28;95079.78;;;5.48;nan
9261;BME280;4667;42.726;23.252;2023-02-23T02:46:59;95081.75;;;5.51;nan
9261;BME280;4667;42.726;23.252;2023-02-23T02:49:31;95078.91;;;5.41;nan
9261;BME280;4667;42.726;23.252;2023-02-23T02:52:04;95078.81;;;5.37;nan
9261;BME280;4667;42.726;23.252;2023-02-23T02:54:40;95074.66;;;5.40;nan
9261;BME280;4667;42.726;23.252;2023-02-23T02:57:10;95069.78;;;5.26;nan
9261;BME280;4667;42.726;23.252;2023-02-23T02:59:43;95081.50;;;5.37;nan
9261;BME280;4667;42.726;23.252;2023-02-23T03:02:28;95078.72;;;5.30;nan
9261;BME280;4667;42.726;23.252;2023-02-23T03:05:15;95072.34;;;5.19;nan
9261;BME280;4667;42.726;23.252;2023-02-23T03:08:08;95080.22;;;5.08;nan
9261;BME280;4667;42.726;23.252;2023-02-23T03:10:59;95085.66;;;5.12;nan
9261;BME280;4667;42.726;23.252;2023-02-23T03:13:52;95077.03;;;5.03;nan
9261;BME280;4667;42.726;23.252;2023-02-23T03:16:43;95081.97;;;5.01;nan
9261;BME280;4667;42.726;23.252;2023-02-23T03:19:35;95082.56;;;4.90;nan
9261;BME280;4667;42.726;23.252;2023-02-23T03:22:28;95081.38;;;4.88;nan
9261;BME280;4667;42.726;23.252;2023-02-23T03:25:17;95093.84;;;4.80;nan
9261;BME280;4667;42.726;23.252;2023-02-23T03:28:09;95088.25;;;4.89;nan
9261;BME280;4667;42.726;23.252;2023-02-23T03:31:04;95091.03;;;4.92;nan
9261;BME280;4667;42.726;23.252;2023-02-23T03:33:55;95097.81;;;4.86;nan
9261;BME280;4667;42.726;23.252;2023-02-23T03:36:46;95097.47;;;4.88;nan
9261;BME280;4667;42.726;23.252;2023-02-23T03:39:36;95095.13;;;4.86;nan
9261;BME280;4667;42.726;23.252;2023-02-23T03:42:26;95102.41;;;4.86;nan
9261;BME280;4667;42.726;23.252;2023-02-23T03:45:16;95105.94;;;4.90;nan
9261;BME280;4667;42.726;23.252;2023-02-23T03:48:02;95107.06;;;4.89;nan
9261;BME280;4667;42.726;23.252;2023-02-23T03:50:51;95112.63;;;4.80;nan
9261;BME280;4667;42.726;23.252;2023-02-23T03:53:41;95105.16;;;4.89;nan
9261;BME280;4667;42.726;23.252;2023-02-23T03:56:30;95111.53;;;4.81;nan
9261;BME280;4667;42.726;23.252;2023-02-23T03:59:19;95110.41;;;4.82;nan
9261;BME280;4667;42.726;23.252;2023-02-23T04:02:07;95114.31;;;4.69;nan
9261;BME280;4667;42.726;23.252;2023-02-23T04:04:54;95105.22;;;4.74;nan
9261;BME280;4667;42.726;23.252;2023-02-23T04:07:42;95106.00;;;4.74;nan
9261;BME280;4667;42.726;23.252;2023-02-23T04:10:29;95107.91;;;4.74;nan
9261;BME280;4667;42.726;23.252;2023-02-23T04:13:17;95115.22;;;4.58;nan
9261;BME280;4667;42.726;23.252;2023-02-23T04:15:48;95107.06;;;4.70;nan
9261;BME280;4667;42.726;23.252;2023-02-23T04:18:20;95106.28;;;4.69;nan
9261;BME280;4667;42.726;23.252;2023-02-23T04:20:51;95109.66;;;4.66;nan
9261;BME280;4667;42.726;23.252;2023-02-23T04:23:18;95112.47;;;4.54;nan
9261;BME280;4667;42.726;23.252;2023-02-23T04:25:47;95106.41;;;4.57;nan
9261;BME280;4667;42.726;23.252;2023-02-23T04:28:14;95097.66;;;4.60;nan
9261;BME280;4667;42.726;23.252;2023-02-23T04:30:41;95115.22;;;4.58;nan
9261;BME280;4667;42.726;23.252;2023-02-23T04:33:11;95109.94;;;4.61;nan
9261;BME280;4667;42.726;23.252;2023-02-23T04:35:39;95107.25;;;4.61;nan
9261;BME280;4667;42.726;23.252;2023-02-23T04:38:06;95112.88;;;4.56;nan
9261;BME280;4667;42.726;23.252;2023-02-23T04:40:34;95115.63;;;4.60;nan
9261;BME280;4667;42.726;23.252;2023-02-23T04:43:00;95115.13;;;4.54;nan
9261;BME280;4667;42.726;23.252;2023-02-23T04:45:27;95120.50;;;4.54;nan
9261;BME280;4667;42.726;23.252;2023-02-23T04:47:54;95115.84;;;4.51;nan
9261;BME280;4667;42.726;23.252;2023-02-23T04:50:21;95112.06;;;4.52;nan
9261;BME280;4667;42.726;23.252;2023-02-23T04:52:49;95113.28;;;4.39;nan
9261;BME280;4667;42.726;23.252;2023-02-23T04:55:20;95110.34;;;4.44;nan
9261;BME280;4667;42.726;23.252;2023-02-23T04:57:47;95118.72;;;4.42;nan
9261;BME280;4667;42.726;23.252;2023-02-23T05:00:18;95117.53;;;4.40;nan
9261;BME280;4667;42.726;23.252;2023-02-23T05:02:45;95114.13;;;4.43;nan
9261;BME280;4667;42.726;23.252;2023-02-23T05:05:11;95118.22;;;4.37;nan
9261;BME280;4667;42.726;23.252;2023-02-23T05:07:38;95120.63;;;4.42;nan
9261;BME280;4667;42.726;23.252;2023-02-23T05:10:08;95114.06;;;4.39;nan
9261;BME280;4667;42.726;23.252;2023-02-23T05:12:35;95126.25;;;4.37;nan
9261;BME280;4667;42.726;23.252;2023-02-23T05:15:03;95116.50;;;4.29;nan
9261;BME280;4667;42.726;23.252;2023-02-23T05:17:30;95116.50;;;4.29;nan
9261;BME280;4667;42.726;23.252;2023-02-23T05:19:56;95122.13;;;4.24;nan
9261;BME280;4667;42.726;23.252;2023-02-23T05:22:23;95121.28;;;4.20;nan
9261;BME280;4667;42.726;23.252;2023-02-23T05:24:50;95126.19;;;4.18;nan
9261;BME280;4667;42.726;23.252;2023-02-23T05:27:18;95127.34;;;4.17;nan
9261;BME280;4667;42.726;23.252;2023-02-23T05:29:46;95134.94;;;4.15;nan
9261;BME280;4667;42.726;23.252;2023-02-23T05:32:13;95141.69;;;4.08;nan
9261;BME280;4667;42.726;23.252;2023-02-23T05:34:40;95138.56;;;4.06;nan
9261;BME280;4667;42.726;23.252;2023-02-23T05:37:08;95139.88;;;4.13;nan
9261;BME280;4667;42.726;23.252;2023-02-23T05:39:35;95140.56;;;4.09;nan
9261;BME280;4667;42.726;23.252;2023-02-23T05:42:01;95143.66;;;4.11;nan
9261;BME280;4667;42.726;23.252;2023-02-23T05:44:30;95151.03;;;4.15;nan
9261;BME280;4667;42.726;23.252;2023-02-23T05:46:57;95157.56;;;4.17;nan
9261;BME280;4667;42.726;23.252;2023-02-23T05:49:24;95154.16;;;4.17;nan
9261;BME280;4667;42.726;23.252;2023-02-23T05:51:50;95159.91;;;4.19;nan
9261;BME280;4667;42.726;23.252;2023-02-23T05:54:17;95163.91;;;4.25;nan
9261;BME280;4667;42.726;23.252;2023-02-23T05:56:44;95171.09;;;4.21;nan
9261;BME280;4667;42.726;23.252;2023-02-23T05:59:11;95172.81;;;4.29;nan
9261;BME280;4667;42.726;23.252;2023-02-23T06:01:39;95172.28;;;4.23;nan
9261;BME280;4667;42.726;23.252;2023-02-23T06:04:05;95174.53;;;4.37;nan
9261;BME280;4667;42.726;23.252;2023-02-23T06:06:32;95175.28;;;4.37;nan
9261;BME280;4667;42.726;23.252;2023-02-23T06:09:01;95176.25;;;4.45;nan
9261;BME280;4667;42.726;23.252;2023-02-23T06:11:28;95176.47;;;4.56;nan
9261;BME280;4667;42.726;23.252;2023-02-23T06:13:57;95184.25;;;4.61;nan
9261;BME280;4667;42.726;23.252;2023-02-23T06:16:26;95182.97;;;4.70;nan
9261;BME280;4667;42.726;23.252;2023-02-23T06:18:54;95180.78;;;4.76;nan
9261;BME280;4667;42.726;23.252;2023-02-23T06:21:21;95176.06;;;4.88;nan
9261;BME280;4667;42.726;23.252;2023-02-23T06:23:51;95180.44;;;4.97;nan
9261;BME280;4667;42.726;23.252;2023-02-23T06:26:18;95185.97;;;5.04;nan
9261;BME280;4667;42.726;23.252;2023-02-23T06:28:46;95189.09;;;5.06;nan
9261;BME280;4667;42.726;23.252;2023-02-23T06:31:12;95181.69;;;5.18;nan
9261;BME280;4667;42.726;23.252;2023-02-23T06:33:39;95181.78;;;5.25;nan
9261;BME280;4667;42.726;23.252;2023-02-23T06:36:10;95186.63;;;5.36;nan
9261;BME280;4667;42.726;23.252;2023-02-23T06:38:37;95198.34;;;5.47;nan
9261;BME280;4667;42.726;23.252;2023-02-23T06:41:07;95199.91;;;5.48;nan
9261;BME280;4667;42.726;23.252;2023-02-23T06:43:34;95201.03;;;5.47;nan
9261;BME280;4667;42.726;23.252;2023-02-23T06:46:01;95198.06;;;5.52;nan
9261;BME280;4667;42.726;23.252;2023-02-23T06:48:28;95200.88;;;5.59;nan
9261;BME280;4667;42.726;23.252;2023-02-23T06:50:57;95199.50;;;5.68;nan
9261;BME280;4667;42.726;23.252;2023-02-23T06:53:26;95194.63;;;5.74;nan
9261;BME280;4667;42.726;23.252;2023-02-23T06:55:53;95192.06;;;5.81;nan
9261;BME280;4667;42.726;23.252;2023-02-23T06:58:20;95196.47;;;5.89;nan
9261;BME280;4667;42.726;23.252;2023-02-23T07:00:49;95190.84;;;5.98;nan
9261;BME280;4667;42.726;23.252;2023-02-23T07:03:15;95185.00;;;6.15;nan
9261;BME280;4667;42.726;23.252;2023-02-23T07:05:43;95197.97;;;6.32;nan
9261;BME280;4667;42.726;23.252;2023-02-23T07:08:11;95198.63;;;6.48;nan
9261;BME280;4667;42.726;23.252;2023-02-23T07:10:39;95186.03;;;6.56;nan
9261;BME280;4667;42.726;23.252;2023-02-23T07:13:05;95184.34;;;6.71;nan
9261;BME280;4667;42.726;23.252;2023-02-23T07:15:34;95187.19;;;6.81;nan
9261;BME280;4667;42.726;23.252;2023-02-23T07:18:01;95195.13;;;6.97;nan
9261;BME280;4667;42.726;23.252;2023-02-23T07:20:31;95195.38;;;7.18;nan
9261;BME280;4667;42.726;23.252;2023-02-23T07:22:59;95189.56;;;7.16;nan
9261;BME280;4667;42.726;23.252;2023-02-23T07:25:26;95193.28;;;7.34;nan
9261;BME280;4667;42.726;23.252;2023-02-23T07:27:54;95187.19;;;7.41;nan
9261;BME280;4667;42.726;23.252;2023-02-23T07:30:23;95181.53;;;7.50;nan
9261;BME280;4667;42.726;23.252;2023-02-23T07:32:50;95178.06;;;7.86;nan
9261;BME280;4667;42.726;23.252;2023-02-23T07:35:17;95184.25;;;8.27;nan
9261;BME280;4667;42.726;23.252;2023-02-23T07:37:46;95181.13;;;8.69;nan
9261;BME280;4667;42.726;23.252;2023-02-23T07:40:13;95169.47;;;9.23;nan
9261;BME280;4667;42.726;23.252;2023-02-23T07:42:40;95165.41;;;9.79;nan
9261;BME280;4667;42.726;23.252;2023-02-23T07:45:09;95175.59;;;10.28;nan
9261;BME280;4667;42.726;23.252;2023-02-23T07:47:36;95168.63;;;10.59;nan
9261;BME280;4667;42.726;23.252;2023-02-23T07:50:05;95161.97;;;11.10;nan
9261;BME280;4667;42.726;23.252;2023-02-23T07:52:34;95161.06;;;11.44;nan
9261;BME280;4667;42.726;23.252;2023-02-23T07:55:01;95167.97;;;11.67;nan
9261;BME280;4667;42.726;23.252;2023-02-23T07:57:28;95163.53;;;12.08;nan
9261;BME280;4667;42.726;23.252;2023-02-23T07:59:55;95160.25;;;12.31;nan
9261;BME280;4667;42.726;23.252;2023-02-23T08:02:23;95160.22;;;12.38;nan
9261;BME280;4667;42.726;23.252;2023-02-23T08:04:50;95162.78;;;12.56;nan
9261;BME280;4667;42.726;23.252;2023-02-23T08:07:18;95163.31;;;12.81;nan
9261;BME280;4667;42.726;23.252;2023-02-23T08:09:45;95163.06;;;13.13;nan
9261;BME280;4667;42.726;23.252;2023-02-23T08:12:13;95159.44;;;13.23;nan
9261;BME280;4667;42.726;23.252;2023-02-23T08:14:43;95155.75;;;13.74;nan
9261;BME280;4667;42.726;23.252;2023-02-23T08:17:10;95152.47;;;14.13;nan
9261;BME280;4667;42.726;23.252;2023-02-23T08:19:38;95151.88;;;14.29;nan
9261;BME280;4667;42.726;23.252;2023-02-23T08:22:06;95149.69;;;14.47;nan
9261;BME280;4667;42.726;23.252;2023-02-23T08:24:33;95149.09;;;14.59;nan
9261;BME280;4667;42.726;23.252;2023-02-23T08:27:01;95151.75;;;14.63;nan
9261;BME280;4667;42.726;23.252;2023-02-23T08:29:31;95145.78;;;14.95;nan
9261;BME280;4667;42.726;23.252;2023-02-23T08:32:01;95146.69;;;15.08;nan
9261;BME280;4667;42.726;23.252;2023-02-23T08:34:31;95146.63;;;15.55;nan
9261;BME280;4667;42.726;23.252;2023-02-23T08:36:59;95138.44;;;15.55;nan
9261;BME280;4667;42.726;23.252;2023-02-23T08:39:28;95147.91;;;15.86;nan
9261;BME280;4667;42.726;23.252;2023-02-23T08:41:55;95149.34;;;15.74;nan
9261;BME280;4667;42.726;23.252;2023-02-23T08:44:22;95144.31;;;15.10;nan
9261;BME280;4667;42.726;23.252;2023-02-23T08:46:48;95146.59;;;15.74;nan
9261;BME280;4667;42.726;23.252;2023-02-23T08:49:16;95137.38;;;16.04;nan
9261;BME280;4667;42.726;23.252;2023-02-23T08:51:43;95145.13;;;15.89;nan
9261;BME280;4667;42.726;23.252;2023-02-23T08:54:13;95142.69;;;15.75;nan
9261;BME280;4667;42.726;23.252;2023-02-23T08:56:41;95146.16;;;16.31;nan
9261;BME280;4667;42.726;23.252;2023-02-23T08:59:14;95142.22;;;16.49;nan
9261;BME280;4667;42.726;23.252;2023-02-23T09:01:42;95144.44;;;16.54;nan
9261;BME280;4667;42.726;23.252;2023-02-23T09:04:10;95132.66;;;16.57;nan
9261;BME280;4667;42.726;23.252;2023-02-23T09:06:37;95136.09;;;16.09;nan
9261;BME280;4667;42.726;23.252;2023-02-23T09:09:08;95135.28;;;16.28;nan
9261;BME280;4667;42.726;23.252;2023-02-23T09:11:36;95131.72;;;16.47;nan
9261;BME280;4667;42.726;23.252;2023-02-23T09:14:06;95138.97;;;16.54;nan
9261;BME280;4667;42.726;23.252;2023-02-23T09:16:37;95138.63;;;16.19;nan
9261;BME280;4667;42.726;23.252;2023-02-23T09:19:04;95134.56;;;15.72;nan
9261;BME280;4667;42.726;23.252;2023-02-23T09:21:34;95134.09;;;15.93;nan
9261;BME280;4667;42.726;23.252;2023-02-23T09:24:02;95134.41;;;15.39;nan
9261;BME280;4667;42.726;23.252;2023-02-23T09:26:32;95143.97;;;15.71;nan
9261;BME280;4667;42.726;23.252;2023-02-23T09:29:01;95134.47;;;15.95;nan
9261;BME280;4667;42.726;23.252;2023-02-23T09:31:33;95132.22;;;16.42;nan
9261;BME280;4667;42.726;23.252;2023-02-23T09:34:02;95136.63;;;16.72;nan
9261;BME280;4667;42.726;23.252;2023-02-23T09:36:29;95142.00;;;16.59;nan
9261;BME280;4667;42.726;23.252;2023-02-23T09:38:57;95136.88;;;16.61;nan
9261;BME280;4667;42.726;23.252;2023-02-23T09:44:51;95126.31;;;16.27;nan
9261;BME280;4667;42.726;23.252;2023-02-23T09:47:36;95131.03;;;16.43;nan
9261;BME280;4667;42.726;23.252;2023-02-23T09:50:16;95124.53;;;17.02;nan
9261;BME280;4667;42.726;23.252;2023-02-23T09:52:53;95131.44;;;17.35;nan
9261;BME280;4667;42.726;23.252;2023-02-23T09:55:22;95126.06;;;18.15;nan
9261;BME280;4667;42.726;23.252;2023-02-23T09:57:56;95124.19;;;18.24;nan
9261;BME280;4667;42.726;23.252;2023-02-23T10:00:33;95122.06;;;19.26;nan
9261;BME280;4667;42.726;23.252;2023-02-23T10:03:11;95108.06;;;19.98;nan
9261;BME280;4667;42.726;23.252;2023-02-23T10:05:46;95111.53;;;20.21;nan
9261;BME280;4667;42.726;23.252;2023-02-23T10:08:23;95116.75;;;19.32;nan
9261;BME280;4667;42.726;23.252;2023-02-23T10:11:01;95111.69;;;18.61;nan
9261;BME280;4667;42.726;23.252;2023-02-23T10:13:43;95113.44;;;18.43;nan
9261;BME280;4667;42.726;23.252;2023-02-23T10:16:34;95108.50;;;17.87;nan
9261;BME280;4667;42.726;23.252;2023-02-23T10:19:20;95105.31;;;18.39;nan
9261;BME280;4667;42.726;23.252;2023-02-23T10:21:53;95105.72;;;19.23;nan
9261;BME280;4667;42.726;23.252;2023-02-23T10:24:24;95093.06;;;19.25;nan
9261;BME280;4667;42.726;23.252;2023-02-23T10:26:55;95099.50;;;19.09;nan
9261;BME280;4667;42.726;23.252;2023-02-23T10:29:27;95095.69;;;19.29;nan
9261;BME280;4667;42.726;23.252;2023-02-23T10:31:59;95084.91;;;19.78;nan
9261;BME280;4667;42.726;23.252;2023-02-23T10:34:29;95079.34;;;20.30;nan
9261;BME280;4667;42.726;23.252;2023-02-23T10:37:01;95083.44;;;20.66;nan
9261;BME280;4667;42.726;23.252;2023-02-23T10:39:29;95079.84;;;21.14;nan
9261;BME280;4667;42.726;23.252;2023-02-23T10:41:59;95078.09;;;20.81;nan
9261;BME280;4667;42.726;23.252;2023-02-23T10:44:28;95074.91;;;20.73;nan
9261;BME280;4667;42.726;23.252;2023-02-23T10:46:59;95072.19;;;21.37;nan
9261;BME280;4667;42.726;23.252;2023-02-23T10:49:33;95068.06;;;21.50;nan
9261;BME280;4667;42.726;23.252;2023-02-23T10:52:01;95059.63;;;22.14;nan
9261;BME280;4667;42.726;23.252;2023-02-23T10:54:42;95061.91;;;22.49;nan
9261;BME280;4667;42.726;23.252;2023-02-23T10:57:11;95055.16;;;22.17;nan
9261;BME280;4667;42.726;23.252;2023-02-23T10:59:58;95048.78;;;22.34;nan
9261;BME280;4667;42.726;23.252;2023-02-23T11:02:28;95035.75;;;22.92;nan
9261;BME280;4667;42.726;23.252;2023-02-23T11:04:59;95039.22;;;22.77;nan
9261;BME280;4667;42.726;23.252;2023-02-23T11:07:30;95034.66;;;23.51;nan
9261;BME280;4667;42.726;23.252;2023-02-23T11:09:59;95035.03;;;23.88;nan
9261;BME280;4667;42.726;23.252;2023-02-23T11:12:45;95033.09;;;24.09;nan
9261;BME280;4667;42.726;23.252;2023-02-23T11:15:26;95028.16;;;23.84;nan
9261;BME280;4667;42.726;23.252;2023-02-23T11:17:58;95020.75;;;23.75;nan
9261;BME280;4667;42.726;23.252;2023-02-23T11:20:32;95031.28;;;23.33;nan
9261;BME280;4667;42.726;23.252;2023-02-23T11:23:00;95026.28;;;23.75;nan
9261;BME280;4667;42.726;23.252;2023-02-23T11:25:34;95021.41;;;23.70;nan
9261;BME280;4667;42.726;23.252;2023-02-23T11:28:03;95004.97;;;23.96;nan
9261;BME280;4667;42.726;23.252;2023-02-23T11:30:35;95002.19;;;23.96;nan
9261;BME280;4667;42.726;23.252;2023-02-23T11:33:16;95007.34;;;23.44;nan
9261;BME280;4667;42.726;23.252;2023-02-23T11:35:57;95001.66;;;22.95;nan
9261;BME280;4667;42.726;23.252;2023-02-23T11:38:30;95001.72;;;22.86;nan
9261;BME280;4667;42.726;23.252;2023-02-23T11:40:59;95001.41;;;22.60;nan
9261;BME280;4667;42.726;23.252;2023-02-23T11:43:27;94995.91;;;22.60;nan
9261;BME280;4667;42.726;23.252;2023-02-23T11:45:55;94998.31;;;22.91;nan
9261;BME280;4667;42.726;23.252;2023-02-23T11:48:30;94995.44;;;22.85;nan
9261;BME280;4667;42.726;23.252;2023-02-23T11:50:59;94994.16;;;23.10;nan
9261;BME280;4667;42.726;23.252;2023-02-23T11:53:29;94986.44;;;23.14;nan
9261;BME280;4667;42.726;23.252;2023-02-23T11:56:00;94993.28;;;23.04;nan
9261;BME280;4667;42.726;23.252;2023-02-23T11:58:39;94994.56;;;23.17;nan
9261;BME280;4667;42.726;23.252;2023-02-23T12:01:10;94981.94;;;23.02;nan
9261;BME280;4667;42.726;23.252;2023-02-23T12:03:46;94980.94;;;22.75;nan
9261;BME280;4667;42.726;23.252;2023-02-23T12:06:31;94982.22;;;22.42;nan
9261;BME280;4667;42.726;23.252;2023-02-23T12:09:08;94987.81;;;21.99;nan
9261;BME280;4667;42.726;23.252;2023-02-23T12:11:50;94988.50;;;22.42;nan
9261;BME280;4667;42.726;23.252;2023-02-23T12:14:28;94973.03;;;22.83;nan
9261;BME280;4667;42.726;23.252;2023-02-23T12:17:07;94975.28;;;22.94;nan
9261;BME280;4667;42.726;23.252;2023-02-23T12:19:43;94973.66;;;23.02;nan
9261;BME280;4667;42.726;23.252;2023-02-23T12:22:12;94976.97;;;22.67;nan
9261;BME280;4667;42.726;23.252;2023-02-23T12:24:50;94975.78;;;22.12;nan
9261;BME280;4667;42.726;23.252;2023-02-23T12:27:25;94976.78;;;21.90;nan
9261;BME280;4667;42.726;23.252;2023-02-23T12:30:02;94974.66;;;21.34;nan
9261;BME280;4667;42.726;23.252;2023-02-23T12:32:43;94975.78;;;21.00;nan
9261;BME280;4667;42.726;23.252;2023-02-23T12:35:17;94968.44;;;20.70;nan
9261;BME280;4667;42.726;23.252;2023-02-23T12:37:50;94968.28;;;20.46;nan
9261;BME280;4667;42.726;23.252;2023-02-23T12:40:21;94964.00;;;20.36;nan
9261;BME280;4667;42.726;23.252;2023-02-23T12:42:57;94969.66;;;20.42;nan
9261;BME280;4667;42.726;23.252;2023-02-23T12:45:32;94966.13;;;20.68;nan
9261;BME280;4667;42.726;23.252;2023-02-23T12:48:10;94970.56;;;20.93;nan
9261;BME280;4667;42.726;23.252;2023-02-23T12:50:44;94963.09;;;20.85;nan
9261;BME280;4667;42.726;23.252;2023-02-23T12:53:24;94960.94;;;20.79;nan
9261;BME280;4667;42.726;23.252;2023-02-23T12:56:03;94961.09;;;20.94;nan
9261;BME280;4667;42.726;23.252;2023-02-23T12:58:37;94959.53;;;21.39;nan
9261;BME280;4667;42.726;23.252;2023-02-23T13:01:09;94958.44;;;21.36;nan
9261;BME280;4667;42.726;23.252;2023-02-23T13:03:48;94962.00;;;21.18;nan
9261;BME280;4667;42.726;23.252;2023-02-23T13:06:26;94949.59;;;21.14;nan
9261;BME280;4667;42.726;23.252;2023-02-23T13:09:12;94954.34;;;21.23;nan
9261;BME280;4667;42.726;23.252;2023-02-23T13:12:15;94960.34;;;21.03;nan
9261;BME280;4667;42.726;23.252;2023-02-23T13:14:53;94963.09;;;20.94;nan
9261;BME280;4667;42.726;23.252;2023-02-23T13:17:39;94956.66;;;20.97;nan
9261;BME280;4667;42.726;23.252;2023-02-23T13:20:17;94961.25;;;20.72;nan
9261;BME280;4667;42.726;23.252;2023-02-23T13:22:54;94958.03;;;20.65;nan
9261;BME280;4667;42.726;23.252;2023-02-23T13:25:36;94955.28;;;20.47;nan
9261;BME280;4667;42.726;23.252;2023-02-23T13:28:44;94946.56;;;20.39;nan
9261;BME280;4667;42.726;23.252;2023-02-23T13:31:23;94947.78;;;20.38;nan
9261;BME280;4667;42.726;23.252;2023-02-23T13:33:54;94942.44;;;20.53;nan
9261;BME280;4667;42.726;23.252;2023-02-23T13:36:33;94943.31;;;20.31;nan
9261;BME280;4667;42.726;23.252;2023-02-23T13:42:41;94946.63;;;20.08;nan
9261;BME280;4667;42.726;23.252;2023-02-23T13:45:25;94947.22;;;20.03;nan
9261;BME280;4667;42.726;23.252;2023-02-23T13:48:21;94949.91;;;19.76;nan
9261;BME280;4667;42.726;23.252;2023-02-23T13:50:56;94954.72;;;19.63;nan
9261;BME280;4667;42.726;23.252;2023-02-23T13:53:39;94954.84;;;19.50;nan
9261;BME280;4667;42.726;23.252;2023-02-23T13:56:16;94955.81;;;19.34;nan
9261;BME280;4667;42.726;23.252;2023-02-23T13:58:54;94951.16;;;19.22;nan
9261;BME280;4667;42.726;23.252;2023-02-23T14:01:32;94950.72;;;19.02;nan
9261;BME280;4667;42.726;23.252;2023-02-23T14:04:14;94948.81;;;19.11;nan
9261;BME280;4667;42.726;23.252;2023-02-23T14:06:53;94945.38;;;18.98;nan
9261;BME280;4667;42.726;23.252;2023-02-23T14:09:29;94942.47;;;19.02;nan
9261;BME280;4667;42.726;23.252;2023-02-23T14:12:12;94947.75;;;18.87;nan
9261;BME280;4667;42.726;23.252;2023-02-23T14:14:48;94944.72;;;18.72;nan
9261;BME280;4667;42.726;23.252;2023-02-23T14:17:42;94956.09;;;18.62;nan
9261;BME280;4667;42.726;23.252;2023-02-23T14:20:44;94949.97;;;18.58;nan
9261;BME280;4667;42.726;23.252;2023-02-23T14:23:16;94947.22;;;18.45;nan
9261;BME280;4667;42.726;23.252;2023-02-23T14:26:09;94946.84;;;18.34;nan
9261;BME280;4667;42.726;23.252;2023-02-23T14:32:39;94965.97;;;18.12;nan
9261;BME280;4667;42.726;23.252;2023-02-23T14:35:41;94966.88;;;17.71;nan